Webster Mills, Pennsylvania
Current Conditions -  °F | °C
As of 2:53 PM on Friday 31 Oct 2014 (Local Time) from KHGR Reporting Station
Overcast Overcast  
Wind Chill: 52°   Ceiling: 5000
Heat Index: 52°   Visibility: 10mi
Dew Point: 35°   Wind: 0mph
Humidity: 53%   Direction: NA
Pressure: 29.88"   Gusts: NA
Location:  39.973°N, 77.9661°W
Report Text: KHGR 311853Z 00000KT 10SM FEW037 OVC050 11/02 A2988 RMK AO2 SLP131 T01110017
Loading
Personal Weather Stations






























Interactive Weather Map
Tropical Storm Tracking
New forecast layout! Learn more

10-Day Weather Forecast

Advertisements
Track Severe Weather on mobile